sensor_id;sensor_type;location;lat;lon;timestamp;pressure;altitude;pressure_sealevel;temperature;humidity
45275;BME280;31019;43.780;25.948;2023-08-01T00:01:50;100638.06;;;17.91;100.00
45275;BME280;31019;43.780;25.948;2023-08-01T00:04:18;100628.63;;;17.88;100.00
45275;BME280;31019;43.780;25.948;2023-08-01T00:06:46;100627.94;;;17.98;100.00
45275;BME280;31019;43.780;25.948;2023-08-01T00:09:25;100617.88;;;17.83;100.00
45275;BME280;31019;43.780;25.948;2023-08-01T00:11:52;100616.16;;;18.04;100.00
45275;BME280;31019;43.780;25.948;2023-08-01T00:14:22;100616.28;;;17.87;100.00
45275;BME280;31019;43.780;25.948;2023-08-01T00:17:03;100607.06;;;18.10;100.00
45275;BME280;31019;43.780;25.948;2023-08-01T00:19:40;100621.31;;;17.78;100.00
45275;BME280;31019;43.780;25.948;2023-08-01T00:22:07;100614.16;;;17.89;100.00
45275;BME280;31019;43.780;25.948;2023-08-01T00:24:37;100602.97;;;17.75;100.00
45275;BME280;31019;43.780;25.948;2023-08-01T00:27:07;100603.78;;;17.76;100.00
45275;BME280;31019;43.780;25.948;2023-08-01T00:29:36;100611.13;;;17.26;100.00
45275;BME280;31019;43.780;25.948;2023-08-01T00:32:12;100605.69;;;17.48;100.00
45275;BME280;31019;43.780;25.948;2023-08-01T00:34:42;100605.81;;;17.31;100.00
45275;BME280;31019;43.780;25.948;2023-08-01T00:37:18;100608.50;;;17.31;100.00
45275;BME280;31019;43.780;25.948;2023-08-01T00:39:58;100590.91;;;17.46;100.00
45275;BME280;31019;43.780;25.948;2023-08-01T00:42:36;100599.19;;;17.71;100.00
45275;BME280;31019;43.780;25.948;2023-08-01T00:45:11;100589.81;;;17.74;100.00
45275;BME280;31019;43.780;25.948;2023-08-01T00:47:38;100596.94;;;17.58;100.00
45275;BME280;31019;43.780;25.948;2023-08-01T00:50:06;100597.34;;;17.17;100.00
45275;BME280;31019;43.780;25.948;2023-08-01T00:52:33;100602.09;;;17.65;100.00
45275;BME280;31019;43.780;25.948;2023-08-01T00:55:07;100591.81;;;17.83;100.00
45275;BME280;31019;43.780;25.948;2023-08-01T00:57:40;100588.78;;;17.48;100.00
45275;BME280;31019;43.780;25.948;2023-08-01T01:00:14;100584.78;;;17.50;100.00
45275;BME280;31019;43.780;25.948;2023-08-01T01:02:41;100576.81;;;17.33;100.00
45275;BME280;31019;43.780;25.948;2023-08-01T01:05:47;100578.47;;;17.67;100.00
45275;BME280;31019;43.780;25.948;2023-08-01T01:08:23;100581.34;;;17.87;100.00
45275;BME280;31019;43.780;25.948;2023-08-01T01:10:58;100579.13;;;17.47;100.00
45275;BME280;31019;43.780;25.948;2023-08-01T01:13:43;100580.44;;;17.44;100.00
45275;BME280;31019;43.780;25.948;2023-08-01T01:16:19;100570.31;;;17.24;100.00
45275;BME280;31019;43.780;25.948;2023-08-01T01:18:57;100564.91;;;17.19;100.00
45275;BME280;31019;43.780;25.948;2023-08-01T01:21:28;100566.06;;;17.60;100.00
45275;BME280;31019;43.780;25.948;2023-08-01T01:24:00;100558.56;;;17.62;100.00
45275;BME280;31019;43.780;25.948;2023-08-01T01:26:40;100562.06;;;17.63;100.00
45275;BME280;31019;43.780;25.948;2023-08-01T01:29:22;100560.84;;;17.44;100.00
45275;BME280;31019;43.780;25.948;2023-08-01T01:31:52;100559.88;;;17.01;100.00
45275;BME280;31019;43.780;25.948;2023-08-01T01:34:22;100561.91;;;16.88;100.00
45275;BME280;31019;43.780;25.948;2023-08-01T01:36:50;100558.56;;;17.30;100.00
45275;BME280;31019;43.780;25.948;2023-08-01T01:39:17;100561.69;;;17.49;100.00
45275;BME280;31019;43.780;25.948;2023-08-01T01:41:50;100560.47;;;17.35;100.00
45275;BME280;31019;43.780;25.948;2023-08-01T01:44:17;100569.75;;;17.22;100.00
45275;BME280;31019;43.780;25.948;2023-08-01T01:46:44;100563.88;;;17.25;100.00
45275;BME280;31019;43.780;25.948;2023-08-01T01:49:15;100567.81;;;17.17;100.00
45275;BME280;31019;43.780;25.948;2023-08-01T01:52:00;100571.78;;;17.37;100.00
45275;BME280;31019;43.780;25.948;2023-08-01T01:54:44;100571.59;;;17.16;100.00
45275;BME280;31019;43.780;25.948;2023-08-01T01:57:11;100568.69;;;17.23;100.00
45275;BME280;31019;43.780;25.948;2023-08-01T01:59:50;100577.66;;;17.07;100.00
45275;BME280;31019;43.780;25.948;2023-08-01T02:02:17;100574.00;;;16.30;100.00
45275;BME280;31019;43.780;25.948;2023-08-01T02:04:52;100574.38;;;16.78;100.00
45275;BME280;31019;43.780;25.948;2023-08-01T02:07:30;100570.94;;;17.09;100.00
45275;BME280;31019;43.780;25.948;2023-08-01T02:09:59;100585.34;;;16.98;100.00
45275;BME280;31019;43.780;25.948;2023-08-01T02:12:26;100572.13;;;16.91;100.00
45275;BME280;31019;43.780;25.948;2023-08-01T02:15:00;100564.31;;;16.90;100.00
45275;BME280;31019;43.780;25.948;2023-08-01T02:17:32;100571.66;;;17.00;100.00
45275;BME280;31019;43.780;25.948;2023-08-01T02:19:59;100574.09;;;17.01;100.00
45275;BME280;31019;43.780;25.948;2023-08-01T02:22:27;100576.72;;;16.96;100.00
45275;BME280;31019;43.780;25.948;2023-08-01T02:24:55;100580.19;;;16.91;100.00
45275;BME280;31019;43.780;25.948;2023-08-01T02:27:22;100576.13;;;16.89;100.00
45275;BME280;31019;43.780;25.948;2023-08-01T02:29:50;100580.31;;;16.80;100.00
45275;BME280;31019;43.780;25.948;2023-08-01T02:32:17;100579.22;;;17.03;100.00
45275;BME280;31019;43.780;25.948;2023-08-01T02:34:44;100579.00;;;17.09;100.00
45275;BME280;31019;43.780;25.948;2023-08-01T02:37:13;100583.25;;;17.05;100.00
45275;BME280;31019;43.780;25.948;2023-08-01T02:39:40;100573.59;;;17.04;100.00
45275;BME280;31019;43.780;25.948;2023-08-01T02:42:08;100588.09;;;16.42;100.00
45275;BME280;31019;43.780;25.948;2023-08-01T02:44:35;100589.81;;;16.70;100.00
45275;BME280;31019;43.780;25.948;2023-08-01T02:47:09;100591.66;;;16.70;100.00
45275;BME280;31019;43.780;25.948;2023-08-01T02:49:36;100593.44;;;16.81;100.00
45275;BME280;31019;43.780;25.948;2023-08-01T02:52:09;100595.50;;;16.96;100.00
45275;BME280;31019;43.780;25.948;2023-08-01T02:54:36;100588.34;;;16.19;100.00
45275;BME280;31019;43.780;25.948;2023-08-01T02:57:04;100598.78;;;16.03;100.00
45275;BME280;31019;43.780;25.948;2023-08-01T02:59:37;100606.56;;;16.39;100.00
45275;BME280;31019;43.780;25.948;2023-08-01T03:02:04;100602.00;;;16.39;100.00
45275;BME280;31019;43.780;25.948;2023-08-01T03:04:47;100604.25;;;16.86;100.00
45275;BME280;31019;43.780;25.948;2023-08-01T03:07:14;100602.53;;;17.02;100.00
45275;BME280;31019;43.780;25.948;2023-08-01T03:09:41;100602.75;;;16.96;100.00
45275;BME280;31019;43.780;25.948;2023-08-01T03:12:15;100610.69;;;17.12;100.00
45275;BME280;31019;43.780;25.948;2023-08-01T03:14:43;100604.28;;;17.13;100.00
45275;BME280;31019;43.780;25.948;2023-08-01T03:17:13;100610.16;;;17.10;100.00
45275;BME280;31019;43.780;25.948;2023-08-01T03:19:55;100617.28;;;17.00;100.00
45275;BME280;31019;43.780;25.948;2023-08-01T03:22:22;100613.47;;;16.96;100.00
45275;BME280;31019;43.780;25.948;2023-08-01T03:24:49;100616.78;;;17.03;100.00
45275;BME280;31019;43.780;25.948;2023-08-01T03:27:33;100617.72;;;17.13;100.00
45275;BME280;31019;43.780;25.948;2023-08-01T03:33:20;100625.88;;;17.02;100.00
45275;BME280;31019;43.780;25.948;2023-08-01T03:35:47;100619.88;;;17.16;100.00
45275;BME280;31019;43.780;25.948;2023-08-01T03:38:14;100630.88;;;17.42;100.00
45275;BME280;31019;43.780;25.948;2023-08-01T03:40:51;100625.66;;;17.57;100.00
45275;BME280;31019;43.780;25.948;2023-08-01T03:43:35;100620.59;;;17.61;100.00
45275;BME280;31019;43.780;25.948;2023-08-01T03:46:02;100631.66;;;17.70;100.00
45275;BME280;31019;43.780;25.948;2023-08-01T03:48:40;100615.72;;;17.85;100.00
45275;BME280;31019;43.780;25.948;2023-08-01T03:51:08;100613.72;;;17.75;100.00
45275;BME280;31019;43.780;25.948;2023-08-01T03:53:47;100618.41;;;17.85;100.00
45275;BME280;31019;43.780;25.948;2023-08-01T03:56:18;100621.25;;;18.05;100.00
45275;BME280;31019;43.780;25.948;2023-08-01T03:58:58;100610.22;;;18.02;100.00
45275;BME280;31019;43.780;25.948;2023-08-01T04:01:26;100616.22;;;18.14;100.00
45275;BME280;31019;43.780;25.948;2023-08-01T04:03:56;100613.97;;;18.01;100.00
45275;BME280;31019;43.780;25.948;2023-08-01T04:06:37;100617.63;;;18.22;100.00
45275;BME280;31019;43.780;25.948;2023-08-01T04:09:08;100619.69;;;18.10;100.00
45275;BME280;31019;43.780;25.948;2023-08-01T04:11:36;100613.28;;;18.21;100.00
45275;BME280;31019;43.780;25.948;2023-08-01T04:14:03;100616.78;;;18.21;100.00
45275;BME280;31019;43.780;25.948;2023-08-01T04:16:35;100621.34;;;18.21;100.00
45275;BME280;31019;43.780;25.948;2023-08-01T04:19:31;100631.03;;;17.84;100.00
45275;BME280;31019;43.780;25.948;2023-08-01T04:21:59;100624.84;;;18.21;100.00
45275;BME280;31019;43.780;25.948;2023-08-01T04:24:26;100624.69;;;18.38;100.00
45275;BME280;31019;43.780;25.948;2023-08-01T04:26:53;100626.97;;;18.62;100.00
45275;BME280;31019;43.780;25.948;2023-08-01T04:29:29;100629.19;;;18.70;100.00
45275;BME280;31019;43.780;25.948;2023-08-01T04:32:02;100622.25;;;18.79;100.00
45275;BME280;31019;43.780;25.948;2023-08-01T04:34:38;100621.47;;;18.94;100.00
45275;BME280;31019;43.780;25.948;2023-08-01T04:37:17;100626.13;;;19.04;100.00
45275;BME280;31019;43.780;25.948;2023-08-01T04:40:21;100626.13;;;19.04;100.00
45275;BME280;31019;43.780;25.948;2023-08-01T04:42:49;100635.03;;;19.09;100.00
45275;BME280;31019;43.780;25.948;2023-08-01T04:48:24;100653.38;;;19.33;100.00
45275;BME280;31019;43.780;25.948;2023-08-01T04:50:59;100644.53;;;19.53;100.00
45275;BME280;31019;43.780;25.948;2023-08-01T04:53:33;100642.16;;;19.66;100.00
45275;BME280;31019;43.780;25.948;2023-08-01T04:56:21;100642.16;;;19.72;100.00
45275;BME280;31019;43.780;25.948;2023-08-01T04:58:58;100642.19;;;19.82;100.00
45275;BME280;31019;43.780;25.948;2023-08-01T05:20:25;100646.66;;;20.73;100.00
45275;BME280;31019;43.780;25.948;2023-08-01T05:22:56;100646.34;;;20.75;100.00
45275;BME280;31019;43.780;25.948;2023-08-01T05:25:23;100647.94;;;20.91;100.00
45275;BME280;31019;43.780;25.948;2023-08-01T05:27:50;100654.16;;;20.87;100.00
45275;BME280;31019;43.780;25.948;2023-08-01T05:30:17;100651.44;;;20.97;100.00
45275;BME280;31019;43.780;25.948;2023-08-01T05:32:44;100649.94;;;21.20;100.00
45275;BME280;31019;43.780;25.948;2023-08-01T05:35:12;100653.13;;;21.27;100.00
45275;BME280;31019;43.780;25.948;2023-08-01T05:37:40;100663.91;;;21.42;100.00
45275;BME280;31019;43.780;25.948;2023-08-01T05:40:09;100657.66;;;21.47;100.00
45275;BME280;31019;43.780;25.948;2023-08-01T05:42:36;100660.66;;;21.85;100.00
45275;BME280;31019;43.780;25.948;2023-08-01T05:45:03;100651.41;;;21.91;100.00
45275;BME280;31019;43.780;25.948;2023-08-01T05:47:30;100662.66;;;22.32;100.00
45275;BME280;31019;43.780;25.948;2023-08-01T05:49:57;100649.38;;;22.60;100.00
45275;BME280;31019;43.780;25.948;2023-08-01T05:52:24;100649.34;;;22.65;100.00
45275;BME280;31019;43.780;25.948;2023-08-01T05:54:53;100654.47;;;22.67;100.00
45275;BME280;31019;43.780;25.948;2023-08-01T05:57:18;100655.53;;;23.14;100.00
45275;BME280;31019;43.780;25.948;2023-08-01T05:59:46;100649.06;;;22.91;100.00
45275;BME280;31019;43.780;25.948;2023-08-01T06:02:12;100638.50;;;22.89;100.00
45275;BME280;31019;43.780;25.948;2023-08-01T06:04:39;100645.06;;;23.45;100.00
45275;BME280;31019;43.780;25.948;2023-08-01T06:07:06;100635.28;;;23.49;100.00
45275;BME280;31019;43.780;25.948;2023-08-01T06:09:33;100630.88;;;23.72;100.00
45275;BME280;31019;43.780;25.948;2023-08-01T06:12:02;100631.31;;;23.41;100.00
45275;BME280;31019;43.780;25.948;2023-08-01T06:14:28;100614.72;;;23.81;100.00
45275;BME280;31019;43.780;25.948;2023-08-01T06:16:55;100621.81;;;23.95;100.00
45275;BME280;31019;43.780;25.948;2023-08-01T06:19:22;100619.69;;;23.92;100.00
45275;BME280;31019;43.780;25.948;2023-08-01T06:21:49;100624.22;;;23.97;100.00
45275;BME280;31019;43.780;25.948;2023-08-01T06:24:16;100611.59;;;24.20;100.00
45275;BME280;31019;43.780;25.948;2023-08-01T06:26:43;100602.41;;;24.02;100.00
45275;BME280;31019;43.780;25.948;2023-08-01T06:29:12;100615.38;;;24.52;100.00
45275;BME280;31019;43.780;25.948;2023-08-01T06:31:38;100614.47;;;24.56;100.00
45275;BME280;31019;43.780;25.948;2023-08-01T06:34:05;100608.28;;;24.92;100.00
45275;BME280;31019;43.780;25.948;2023-08-01T06:36:32;100599.13;;;25.02;100.00
45275;BME280;31019;43.780;25.948;2023-08-01T06:39:00;100597.56;;;25.23;100.00
45275;BME280;31019;43.780;25.948;2023-08-01T06:41:27;100603.41;;;25.53;100.00
45275;BME280;31019;43.780;25.948;2023-08-01T06:43:54;100602.91;;;25.28;100.00
45275;BME280;31019;43.780;25.948;2023-08-01T06:46:22;100606.06;;;25.44;100.00
45275;BME280;31019;43.780;25.948;2023-08-01T06:48:49;100604.88;;;25.36;100.00
45275;BME280;31019;43.780;25.948;2023-08-01T06:51:16;100606.78;;;24.86;100.00
45275;BME280;31019;43.780;25.948;2023-08-01T06:53:43;100595.47;;;25.20;100.00
45275;BME280;31019;43.780;25.948;2023-08-01T06:56:10;100597.53;;;25.15;100.00
45275;BME280;31019;43.780;25.948;2023-08-01T06:58:37;100597.31;;;24.97;100.00
45275;BME280;31019;43.780;25.948;2023-08-01T07:01:04;100606.41;;;24.79;100.00
45275;BME280;31019;43.780;25.948;2023-08-01T07:03:32;100611.69;;;25.48;100.00
45275;BME280;31019;43.780;25.948;2023-08-01T07:06:00;100599.63;;;25.63;100.00
45275;BME280;31019;43.780;25.948;2023-08-01T07:08:27;100602.06;;;25.64;100.00
45275;BME280;31019;43.780;25.948;2023-08-01T07:10:55;100594.78;;;25.51;100.00
45275;BME280;31019;43.780;25.948;2023-08-01T07:13:22;100602.84;;;25.65;100.00
45275;BME280;31019;43.780;25.948;2023-08-01T07:15:50;100596.97;;;25.26;100.00
45275;BME280;31019;43.780;25.948;2023-08-01T07:18:17;100605.25;;;25.44;100.00
45275;BME280;31019;43.780;25.948;2023-08-01T07:20:46;100584.63;;;25.43;100.00
45275;BME280;31019;43.780;25.948;2023-08-01T07:23:13;100586.84;;;25.04;100.00
45275;BME280;31019;43.780;25.948;2023-08-01T07:25:40;100585.13;;;25.45;100.00
45275;BME280;31019;43.780;25.948;2023-08-01T07:28:07;100584.56;;;25.56;100.00
45275;BME280;31019;43.780;25.948;2023-08-01T07:30:34;100584.06;;;25.54;100.00
45275;BME280;31019;43.780;25.948;2023-08-01T07:33:00;100586.88;;;25.72;100.00
45275;BME280;31019;43.780;25.948;2023-08-01T07:35:27;100582.47;;;25.31;100.00
45275;BME280;31019;43.780;25.948;2023-08-01T07:37:56;100582.13;;;25.32;100.00
45275;BME280;31019;43.780;25.948;2023-08-01T07:40:23;100572.78;;;25.92;100.00
45275;BME280;31019;43.780;25.948;2023-08-01T07:42:50;100569.47;;;26.44;100.00
45275;BME280;31019;43.780;25.948;2023-08-01T07:45:26;100575.97;;;26.25;100.00
45275;BME280;31019;43.780;25.948;2023-08-01T07:47:53;100578.56;;;26.31;100.00
45275;BME280;31019;43.780;25.948;2023-08-01T07:50:20;100574.81;;;26.49;100.00
45275;BME280;31019;43.780;25.948;2023-08-01T07:52:47;100567.44;;;26.49;100.00
45275;BME280;31019;43.780;25.948;2023-08-01T07:55:16;100575.91;;;26.08;100.00
45275;BME280;31019;43.780;25.948;2023-08-01T07:57:43;100571.34;;;26.26;100.00
45275;BME280;31019;43.780;25.948;2023-08-01T08:00:23;100575.97;;;26.25;100.00
45275;BME280;31019;43.780;25.948;2023-08-01T08:02:54;100578.22;;;26.63;100.00
45275;BME280;31019;43.780;25.948;2023-08-01T08:05:21;100573.16;;;26.97;100.00
45275;BME280;31019;43.780;25.948;2023-08-01T08:07:48;100577.41;;;26.23;100.00
45275;BME280;31019;43.780;25.948;2023-08-01T08:10:16;100570.34;;;26.62;100.00
45275;BME280;31019;43.780;25.948;2023-08-01T08:12:43;100572.78;;;27.68;100.00
45275;BME280;31019;43.780;25.948;2023-08-01T08:15:10;100565.38;;;27.77;100.00
45275;BME280;31019;43.780;25.948;2023-08-01T08:17:39;100563.50;;;28.16;100.00
45275;BME280;31019;43.780;25.948;2023-08-01T08:20:06;100565.97;;;28.38;100.00
45275;BME280;31019;43.780;25.948;2023-08-01T08:22:34;100559.91;;;27.94;100.00
45275;BME280;31019;43.780;25.948;2023-08-01T08:25:01;100563.88;;;28.44;100.00
45275;BME280;31019;43.780;25.948;2023-08-01T08:27:29;100565.81;;;28.94;100.00
45275;BME280;31019;43.780;25.948;2023-08-01T08:29:56;100552.22;;;29.27;100.00
45275;BME280;31019;43.780;25.948;2023-08-01T08:32:23;100544.53;;;28.79;100.00
45275;BME280;31019;43.780;25.948;2023-08-01T08:34:50;100538.22;;;29.08;100.00
45275;BME280;31019;43.780;25.948;2023-08-01T08:37:17;100546.00;;;28.97;100.00
45275;BME280;31019;43.780;25.948;2023-08-01T08:39:44;100543.75;;;29.20;100.00
45275;BME280;31019;43.780;25.948;2023-08-01T08:42:10;100542.94;;;28.98;100.00
45275;BME280;31019;43.780;25.948;2023-08-01T08:44:43;100541.22;;;29.15;100.00
45275;BME280;31019;43.780;25.948;2023-08-01T08:47:11;100543.03;;;28.90;100.00
45275;BME280;31019;43.780;25.948;2023-08-01T08:49:38;100537.25;;;28.32;100.00
45275;BME280;31019;43.780;25.948;2023-08-01T08:52:07;100531.25;;;28.47;100.00
45275;BME280;31019;43.780;25.948;2023-08-01T08:54:35;100523.72;;;28.86;100.00
45275;BME280;31019;43.780;25.948;2023-08-01T08:57:05;100512.53;;;29.00;100.00
45275;BME280;31019;43.780;25.948;2023-08-01T08:59:33;100526.19;;;28.58;100.00
45275;BME280;31019;43.780;25.948;2023-08-01T09:02:03;100521.13;;;28.48;100.00
45275;BME280;31019;43.780;25.948;2023-08-01T09:04:31;100517.69;;;29.02;100.00
45275;BME280;31019;43.780;25.948;2023-08-01T09:07:02;100511.88;;;28.82;100.00
45275;BME280;31019;43.780;25.948;2023-08-01T09:09:33;100516.41;;;28.99;100.00
45275;BME280;31019;43.780;25.948;2023-08-01T09:12:00;100517.69;;;29.35;100.00
45275;BME280;31019;43.780;25.948;2023-08-01T09:14:27;100510.78;;;29.50;100.00
45275;BME280;31019;43.780;25.948;2023-08-01T09:16:55;100516.00;;;30.00;100.00
45275;BME280;31019;43.780;25.948;2023-08-01T09:19:25;100511.91;;;30.06;100.00
45275;BME280;31019;43.780;25.948;2023-08-01T09:22:13;100501.19;;;30.38;100.00
45275;BME280;31019;43.780;25.948;2023-08-01T09:25:13;100507.41;;;30.63;100.00
45275;BME280;31019;43.780;25.948;2023-08-01T09:27:40;100497.84;;;30.97;100.00
45275;BME280;31019;43.780;25.948;2023-08-01T09:30:09;100488.53;;;31.14;100.00
45275;BME280;31019;43.780;25.948;2023-08-01T09:32:38;100484.03;;;30.94;100.00
45275;BME280;31019;43.780;25.948;2023-08-01T09:35:08;100483.22;;;31.21;100.00
45275;BME280;31019;43.780;25.948;2023-08-01T09:37:40;100486.94;;;31.41;100.00
45275;BME280;31019;43.780;25.948;2023-08-01T09:40:07;100480.78;;;31.32;100.00
45275;BME280;31019;43.780;25.948;2023-08-01T09:42:38;100486.13;;;31.88;100.00
45275;BME280;31019;43.780;25.948;2023-08-01T09:48:22;100485.91;;;30.77;100.00
45275;BME280;31019;43.780;25.948;2023-08-01T09:51:04;100483.81;;;29.60;100.00
45275;BME280;31019;43.780;25.948;2023-08-01T09:53:31;100481.91;;;30.22;100.00
45275;BME280;31019;43.780;25.948;2023-08-01T09:56:00;100476.31;;;29.82;100.00
45275;BME280;31019;43.780;25.948;2023-08-01T09:58:29;100466.16;;;29.82;100.00
45275;BME280;31019;43.780;25.948;2023-08-01T10:00:58;100462.63;;;30.31;100.00
45275;BME280;31019;43.780;25.948;2023-08-01T10:03:27;100464.91;;;29.92;100.00
45275;BME280;31019;43.780;25.948;2023-08-01T10:06:21;100458.78;;;30.60;100.00
45275;BME280;31019;43.780;25.948;2023-08-01T10:08:51;100459.50;;;29.47;100.00
45275;BME280;31019;43.780;25.948;2023-08-01T10:11:20;100446.94;;;30.44;100.00
45275;BME280;31019;43.780;25.948;2023-08-01T10:13:56;100451.22;;;30.29;100.00
45275;BME280;31019;43.780;25.948;2023-08-01T10:16:25;100448.34;;;30.13;100.00
45275;BME280;31019;43.780;25.948;2023-08-01T10:18:52;100447.03;;;30.60;100.00
45275;BME280;31019;43.780;25.948;2023-08-01T10:21:22;100443.56;;;29.98;100.00
45275;BME280;31019;43.780;25.948;2023-08-01T10:23:55;100443.34;;;30.68;100.00
45275;BME280;31019;43.780;25.948;2023-08-01T10:26:22;100443.69;;;29.77;100.00
45275;BME280;31019;43.780;25.948;2023-08-01T10:28:50;100444.94;;;29.67;100.00
45275;BME280;31019;43.780;25.948;2023-08-01T10:31:19;100447.50;;;29.27;100.00
45275;BME280;31019;43.780;25.948;2023-08-01T10:33:48;100439.13;;;29.56;100.00
45275;BME280;31019;43.780;25.948;2023-08-01T10:36:17;100438.00;;;29.12;100.00
45275;BME280;31019;43.780;25.948;2023-08-01T10:38:50;100428.06;;;29.65;100.00
45275;BME280;31019;43.780;25.948;2023-08-01T10:41:20;100431.56;;;29.53;100.00
45275;BME280;31019;43.780;25.948;2023-08-01T10:43:47;100421.00;;;29.76;100.00
45275;BME280;31019;43.780;25.948;2023-08-01T10:46:14;100419.19;;;29.68;100.00
45275;BME280;31019;43.780;25.948;2023-08-01T10:48:52;100427.25;;;30.13;100.00
45275;BME280;31019;43.780;25.948;2023-08-01T10:51:19;100424.09;;;29.99;100.00
45275;BME280;31019;43.780;25.948;2023-08-01T10:53:46;100422.47;;;30.23;100.00
45275;BME280;31019;43.780;25.948;2023-08-01T10:56:18;100428.19;;;30.05;100.00
45275;BME280;31019;43.780;25.948;2023-08-01T10:58:47;100409.50;;;29.71;100.00
45275;BME280;31019;43.780;25.948;2023-08-01T11:01:14;100413.56;;;30.01;100.00
45275;BME280;31019;43.780;25.948;2023-08-01T11:03:41;100408.78;;;29.86;100.00
45275;BME280;31019;43.780;25.948;2023-08-01T11:06:09;100414.06;;;29.66;100.00
45275;BME280;31019;43.780;25.948;2023-08-01T11:08:36;100403.19;;;29.33;100.00
45275;BME280;31019;43.780;25.948;2023-08-01T11:11:14;100393.84;;;29.83;100.00
45275;BME280;31019;43.780;25.948;2023-08-01T11:14:00;100392.97;;;29.67;100.00
45275;BME280;31019;43.780;25.948;2023-08-01T11:16:28;100392.50;;;29.65;100.00
45275;BME280;31019;43.780;25.948;2023-08-01T11:18:55;100396.56;;;29.59;100.00
45275;BME280;31019;43.780;25.948;2023-08-01T11:21:33;100391.91;;;30.08;100.00
45275;BME280;31019;43.780;25.948;2023-08-01T11:24:06;100391.13;;;29.96;100.00
45275;BME280;31019;43.780;25.948;2023-08-01T11:26:41;100378.69;;;29.86;100.00
45275;BME280;31019;43.780;25.948;2023-08-01T11:29:11;100383.34;;;29.61;100.00
45275;BME280;31019;43.780;25.948;2023-08-01T11:32:05;100374.53;;;30.17;100.00
45275;BME280;31019;43.780;25.948;2023-08-01T11:34:40;100375.72;;;31.32;100.00
45275;BME280;31019;43.780;25.948;2023-08-01T11:37:10;100368.16;;;31.92;100.00
45275;BME280;31019;43.780;25.948;2023-08-01T11:39:55;100368.53;;;32.10;100.00
45275;BME280;31019;43.780;25.948;2023-08-01T11:42:32;100368.88;;;31.73;100.00
45275;BME280;31019;43.780;25.948;2023-08-01T11:45:10;100350.88;;;31.56;100.00
45275;BME280;31019;43.780;25.948;2023-08-01T11:47:48;100350.47;;;31.89;100.00
45275;BME280;31019;43.780;25.948;2023-08-01T11:53:29;100340.94;;;32.22;100.00
45275;BME280;31019;43.780;25.948;2023-08-01T11:56:03;100336.09;;;32.15;100.00
45275;BME280;31019;43.780;25.948;2023-08-01T11:58:58;100327.69;;;32.28;100.00
45275;BME280;31019;43.780;25.948;2023-08-01T12:01:27;100325.38;;;32.69;100.00
45275;BME280;31019;43.780;25.948;2023-08-01T12:03:55;100334.19;;;31.65;100.00
45275;BME280;31019;43.780;25.948;2023-08-01T12:06:23;100328.81;;;32.85;100.00
45275;BME280;31019;43.780;25.948;2023-08-01T12:08:52;100333.47;;;31.68;100.00
45275;BME280;31019;43.780;25.948;2023-08-01T12:11:20;100323.00;;;32.09;100.00
45275;BME280;31019;43.780;25.948;2023-08-01T12:13:48;100315.50;;;32.45;100.00
45275;BME280;31019;43.780;25.948;2023-08-01T12:16:28;100315.28;;;32.53;100.00
45275;BME280;31019;43.780;25.948;2023-08-01T12:18:55;100320.03;;;31.98;100.00
45275;BME280;31019;43.780;25.948;2023-08-01T12:21:24;100306.09;;;32.46;100.00
45275;BME280;31019;43.780;25.948;2023-08-01T12:23:51;100312.44;;;32.30;100.00
45275;BME280;31019;43.780;25.948;2023-08-01T12:26:18;100314.78;;;31.74;100.00
45275;BME280;31019;43.780;25.948;2023-08-01T12:28:45;100307.38;;;31.58;100.00
45275;BME280;31019;43.780;25.948;2023-08-01T12:31:16;100312.69;;;32.02;100.00
45275;BME280;31019;43.780;25.948;2023-08-01T12:33:44;100307.56;;;31.65;100.00
45275;BME280;31019;43.780;25.948;2023-08-01T12:36:11;100307.00;;;31.76;100.00
45275;BME280;31019;43.780;25.948;2023-08-01T12:38:38;100295.75;;;32.39;100.00
45275;BME280;31019;43.780;25.948;2023-08-01T12:41:05;100301.75;;;32.25;100.00
45275;BME280;31019;43.780;25.948;2023-08-01T12:43:33;100297.88;;;31.20;100.00
45275;BME280;31019;43.780;25.948;2023-08-01T12:46:00;100301.31;;;31.17;100.00
45275;BME280;31019;43.780;25.948;2023-08-01T12:48:27;100283.13;;;31.60;100.00
45275;BME280;31019;43.780;25.948;2023-08-01T12:50:56;100289.84;;;31.63;100.00
45275;BME280;31019;43.780;25.948;2023-08-01T12:53:23;100279.94;;;31.93;100.00
45275;BME280;31019;43.780;25.948;2023-08-01T12:55:51;100279.75;;;31.67;100.00
45275;BME280;31019;43.780;25.948;2023-08-01T12:58:18;100282.28;;;31.40;100.00
45275;BME280;31019;43.780;25.948;2023-08-01T13:00:45;100277.25;;;31.26;100.00
45275;BME280;31019;43.780;25.948;2023-08-01T13:03:12;100274.56;;;31.46;100.00
45275;BME280;31019;43.780;25.948;2023-08-01T13:05:40;100274.78;;;31.21;100.00
45275;BME280;31019;43.780;25.948;2023-08-01T13:08:09;100273.13;;;31.52;100.00
45275;BME280;31019;43.780;25.948;2023-08-01T13:10:37;100266.16;;;32.52;100.00
45275;BME280;31019;43.780;25.948;2023-08-01T13:13:04;100268.50;;;32.73;100.00
45275;BME280;31019;43.780;25.948;2023-08-01T13:15:31;100269.75;;;32.98;100.00
45275;BME280;31019;43.780;25.948;2023-08-01T13:17:58;100254.47;;;32.35;100.00
45275;BME280;31019;43.780;25.948;2023-08-01T13:20:25;100258.06;;;33.05;100.00